Pagina principală
METAR-TAF:

METAR-TAF

Aeroporturi :

Ittoqqortoormiit, Groenlanda

Latitudine: 70-45N, longitudine: 022-39W, elevație: 14 m

METAR: lipsă

Ora: 06:08 (07:08 UTC)

Prognoză

Raportul a fost făcut în urmă cu 16 ore și 5 de minute, la 15:03 UTC
Prognoză valabilă de la 22 ora 15 UTC la 22 ora 19 UTC
Vânt 18 kt de la Nord-vest
Vizibilitate de 10 km sau mai mult
Nori fragmentați la o înălțime de 3000 picior
Temporar
de la 22 ora 15 UTC la 22 ora 19 UTC
Nori împrăștiați la o înălțime de 3000 picior
Nori fragmentați la o înălțime de 9000 picior
curent de zăpadă la joasă înălțime,

TAF: BGCO 221503Z 2215/2219 32018KT 9999 BKN030 TEMPO 2215/2219 DRSN SCT030 BKN090

Observații și prognoze meteo pentru peste 4.000 de aeroporturi (rapoarte METAR și TAF).

Stațiile disponibile sunt reprezentate pe hartă prin puncte galbene și roșii.

Țineți indicatorul mouse-ului pe punctul dorit pentru a vedea denumirea stației.

Apoi, faceți clic pentru a vedea observațiile și prognozele meteorologice.

Pentru a schimba harta: Pentru mărire, faceți clic pe butoanele verzi cu cruce neagră; pentru micșorare, pe butonul verde cu o liniuță; pentru hărți învecinate, pe săgețile verzi.


METAR-TAF: